sensor_id;sensor_type;location;lat;lon;timestamp;temperature;humidity
13074;DHT22;6603;47.066;15.396;2022-10-17T00:01:50;9.60;99.90
13074;DHT22;6603;47.066;15.396;2022-10-17T00:04:15;9.70;99.90
13074;DHT22;6603;47.066;15.396;2022-10-17T00:06:41;9.70;99.90
13074;DHT22;6603;47.066;15.396;2022-10-17T00:09:07;9.80;99.90
13074;DHT22;6603;47.066;15.396;2022-10-17T00:11:34;9.90;99.90
13074;DHT22;6603;47.066;15.396;2022-10-17T00:14:00;9.60;99.90
13074;DHT22;6603;47.066;15.396;2022-10-17T00:16:29;9.70;99.90
13074;DHT22;6603;47.066;15.396;2022-10-17T00:18:56;9.60;99.90
13074;DHT22;6603;47.066;15.396;2022-10-17T00:21:22;9.40;99.90
13074;DHT22;6603;47.066;15.396;2022-10-17T00:23:49;9.60;99.90
13074;DHT22;6603;47.066;15.396;2022-10-17T00:26:16;9.60;99.90
13074;DHT22;6603;47.066;15.396;2022-10-17T00:28:44;9.60;99.90
13074;DHT22;6603;47.066;15.396;2022-10-17T00:31:10;9.40;99.90
13074;DHT22;6603;47.066;15.396;2022-10-17T00:33:36;9.60;99.90
13074;DHT22;6603;47.066;15.396;2022-10-17T00:36:16;9.60;99.90
13074;DHT22;6603;47.066;15.396;2022-10-17T00:38:44;9.50;99.90
13074;DHT22;6603;47.066;15.396;2022-10-17T00:41:13;9.50;99.90
13074;DHT22;6603;47.066;15.396;2022-10-17T00:43:52;9.30;99.90
13074;DHT22;6603;47.066;15.396;2022-10-17T00:46:18;9.40;99.90
13074;DHT22;6603;47.066;15.396;2022-10-17T00:48:45;9.30;99.90
13074;DHT22;6603;47.066;15.396;2022-10-17T00:51:14;9.60;99.90
13074;DHT22;6603;47.066;15.396;2022-10-17T00:53:40;9.60;99.90
13074;DHT22;6603;47.066;15.396;2022-10-17T00:56:06;9.40;99.90
13074;DHT22;6603;47.066;15.396;2022-10-17T00:58:33;9.50;99.90
13074;DHT22;6603;47.066;15.396;2022-10-17T01:01:00;9.60;99.90
13074;DHT22;6603;47.066;15.396;2022-10-17T01:03:26;9.40;99.90
13074;DHT22;6603;47.066;15.396;2022-10-17T01:05:52;9.50;99.90
13074;DHT22;6603;47.066;15.396;2022-10-17T01:08:18;9.30;99.90
13074;DHT22;6603;47.066;15.396;2022-10-17T01:11:30;9.40;99.90
13074;DHT22;6603;47.066;15.396;2022-10-17T01:13:51;9.50;99.90
13074;DHT22;6603;47.066;15.396;2022-10-17T01:16:26;9.40;99.90
13074;DHT22;6603;47.066;15.396;2022-10-17T01:40:45;9.20;99.90
13074;DHT22;6603;47.066;15.396;2022-10-17T01:43:22;9.10;99.90
13074;DHT22;6603;47.066;15.396;2022-10-17T01:46:00;8.90;99.90
13074;DHT22;6603;47.066;15.396;2022-10-17T01:48:35;9.10;99.90
13074;DHT22;6603;47.066;15.396;2022-10-17T01:51:10;9.10;99.90
13074;DHT22;6603;47.066;15.396;2022-10-17T01:53:42;8.80;99.90
13074;DHT22;6603;47.066;15.396;2022-10-17T01:56:12;8.90;99.90
13074;DHT22;6603;47.066;15.396;2022-10-17T01:58:49;9.00;99.90
13074;DHT22;6603;47.066;15.396;2022-10-17T02:01:18;8.90;99.90
13074;DHT22;6603;47.066;15.396;2022-10-17T02:03:46;8.70;99.90
13074;DHT22;6603;47.066;15.396;2022-10-17T02:06:14;9.00;99.90
13074;DHT22;6603;47.066;15.396;2022-10-17T02:08:45;8.80;99.90
13074;DHT22;6603;47.066;15.396;2022-10-17T02:11:22;8.60;99.90
13074;DHT22;6603;47.066;15.396;2022-10-17T02:14:04;8.60;99.90
13074;DHT22;6603;47.066;15.396;2022-10-17T02:16:42;8.60;99.90
13074;DHT22;6603;47.066;15.396;2022-10-17T02:23:15;8.80;99.90
13074;DHT22;6603;47.066;15.396;2022-10-17T02:28:08;9.00;99.90
13074;DHT22;6603;47.066;15.396;2022-10-17T02:31:01;8.70;99.90
13074;DHT22;6603;47.066;15.396;2022-10-17T02:33:38;8.60;99.90
13074;DHT22;6603;47.066;15.396;2022-10-17T02:36:11;8.40;99.90
13074;DHT22;6603;47.066;15.396;2022-10-17T02:38:39;8.60;99.90
13074;DHT22;6603;47.066;15.396;2022-10-17T02:41:11;8.70;99.90
13074;DHT22;6603;47.066;15.396;2022-10-17T02:43:38;8.70;99.90
13074;DHT22;6603;47.066;15.396;2022-10-17T02:46:05;8.60;99.90
13074;DHT22;6603;47.066;15.396;2022-10-17T02:48:46;8.60;99.90
13074;DHT22;6603;47.066;15.396;2022-10-17T02:56:38;8.90;99.90
13074;DHT22;6603;47.066;15.396;2022-10-17T02:59:06;9.00;99.90
13074;DHT22;6603;47.066;15.396;2022-10-17T03:01:35;9.00;99.90
13074;DHT22;6603;47.066;15.396;2022-10-17T03:04:08;8.90;99.90
13074;DHT22;6603;47.066;15.396;2022-10-17T03:06:34;8.60;99.90
13074;DHT22;6603;47.066;15.396;2022-10-17T03:09:00;8.50;99.90
13074;DHT22;6603;47.066;15.396;2022-10-17T03:11:26;8.30;99.90
13074;DHT22;6603;47.066;15.396;2022-10-17T03:13:52;8.40;99.90
13074;DHT22;6603;47.066;15.396;2022-10-17T03:16:18;8.60;99.90
13074;DHT22;6603;47.066;15.396;2022-10-17T03:18:43;8.60;99.90
13074;DHT22;6603;47.066;15.396;2022-10-17T03:21:09;8.60;99.90
13074;DHT22;6603;47.066;15.396;2022-10-17T03:23:35;8.80;99.90
13074;DHT22;6603;47.066;15.396;2022-10-17T03:26:06;8.70;99.90
13074;DHT22;6603;47.066;15.396;2022-10-17T03:28:32;8.60;99.90
13074;DHT22;6603;47.066;15.396;2022-10-17T03:30:59;8.80;99.90
13074;DHT22;6603;47.066;15.396;2022-10-17T03:33:30;8.40;99.90
13074;DHT22;6603;47.066;15.396;2022-10-17T03:35:56;8.40;99.90
13074;DHT22;6603;47.066;15.396;2022-10-17T03:38:22;8.60;99.90
13074;DHT22;6603;47.066;15.396;2022-10-17T03:40:54;8.40;99.90
13074;DHT22;6603;47.066;15.396;2022-10-17T03:43:20;8.40;99.90
13074;DHT22;6603;47.066;15.396;2022-10-17T03:45:46;8.60;99.90
13074;DHT22;6603;47.066;15.396;2022-10-17T03:48:12;8.60;99.90
13074;DHT22;6603;47.066;15.396;2022-10-17T03:50:38;8.20;99.90
13074;DHT22;6603;47.066;15.396;2022-10-17T03:53:03;8.10;99.90
13074;DHT22;6603;47.066;15.396;2022-10-17T03:55:29;7.90;99.90
13074;DHT22;6603;47.066;15.396;2022-10-17T03:57:55;7.90;99.90
13074;DHT22;6603;47.066;15.396;2022-10-17T04:00:21;8.20;99.90
13074;DHT22;6603;47.066;15.396;2022-10-17T04:02:46;8.30;99.90
13074;DHT22;6603;47.066;15.396;2022-10-17T04:05:12;8.40;99.90
13074;DHT22;6603;47.066;15.396;2022-10-17T04:07:38;8.30;99.90
13074;DHT22;6603;47.066;15.396;2022-10-17T04:10:04;8.20;99.90
13074;DHT22;6603;47.066;15.396;2022-10-17T04:12:30;8.30;99.90
13074;DHT22;6603;47.066;15.396;2022-10-17T04:14:56;8.30;99.90
13074;DHT22;6603;47.066;15.396;2022-10-17T04:17:21;8.30;99.90
13074;DHT22;6603;47.066;15.396;2022-10-17T04:19:48;8.30;99.90
13074;DHT22;6603;47.066;15.396;2022-10-17T04:22:14;8.30;99.90
13074;DHT22;6603;47.066;15.396;2022-10-17T04:24:40;8.30;99.90
13074;DHT22;6603;47.066;15.396;2022-10-17T04:27:06;8.10;99.90
13074;DHT22;6603;47.066;15.396;2022-10-17T04:29:31;8.30;99.90
13074;DHT22;6603;47.066;15.396;2022-10-17T04:31:58;8.40;99.90
13074;DHT22;6603;47.066;15.396;2022-10-17T04:34:23;8.20;99.90
13074;DHT22;6603;47.066;15.396;2022-10-17T04:36:49;8.10;99.90
13074;DHT22;6603;47.066;15.396;2022-10-17T04:39:16;8.10;99.90
13074;DHT22;6603;47.066;15.396;2022-10-17T04:41:42;8.30;99.90
13074;DHT22;6603;47.066;15.396;2022-10-17T04:44:09;8.40;99.90
13074;DHT22;6603;47.066;15.396;2022-10-17T04:46:35;8.10;99.90
13074;DHT22;6603;47.066;15.396;2022-10-17T04:49:01;8.00;99.90
13074;DHT22;6603;47.066;15.396;2022-10-17T04:51:27;8.30;99.90
13074;DHT22;6603;47.066;15.396;2022-10-17T04:53:54;8.10;99.90
13074;DHT22;6603;47.066;15.396;2022-10-17T04:56:21;8.20;99.90
13074;DHT22;6603;47.066;15.396;2022-10-17T04:58:48;8.10;99.90
13074;DHT22;6603;47.066;15.396;2022-10-17T05:01:17;8.20;99.90
13074;DHT22;6603;47.066;15.396;2022-10-17T05:03:43;8.00;99.90
13074;DHT22;6603;47.066;15.396;2022-10-17T05:06:15;8.10;99.90
13074;DHT22;6603;47.066;15.396;2022-10-17T05:08:42;7.90;99.90
13074;DHT22;6603;47.066;15.396;2022-10-17T05:11:34;8.20;99.90
13074;DHT22;6603;47.066;15.396;2022-10-17T05:14:01;8.00;99.90
13074;DHT22;6603;47.066;15.396;2022-10-17T05:16:27;8.10;99.90
13074;DHT22;6603;47.066;15.396;2022-10-17T05:18:55;8.20;99.90
13074;DHT22;6603;47.066;15.396;2022-10-17T05:21:23;8.10;99.90
13074;DHT22;6603;47.066;15.396;2022-10-17T05:23:49;8.00;99.90
13074;DHT22;6603;47.066;15.396;2022-10-17T05:26:15;8.10;99.90
13074;DHT22;6603;47.066;15.396;2022-10-17T05:28:41;8.20;99.90
13074;DHT22;6603;47.066;15.396;2022-10-17T05:31:08;8.10;99.90
13074;DHT22;6603;47.066;15.396;2022-10-17T05:33:34;8.20;99.90
13074;DHT22;6603;47.066;15.396;2022-10-17T05:36:01;8.10;99.90
13074;DHT22;6603;47.066;15.396;2022-10-17T05:38:27;8.30;99.90
13074;DHT22;6603;47.066;15.396;2022-10-17T05:41:01;8.10;99.90
13074;DHT22;6603;47.066;15.396;2022-10-17T05:43:27;8.20;99.90
13074;DHT22;6603;47.066;15.396;2022-10-17T05:45:54;8.20;99.90
13074;DHT22;6603;47.066;15.396;2022-10-17T05:48:21;8.40;99.90
13074;DHT22;6603;47.066;15.396;2022-10-17T05:50:47;8.30;99.90
13074;DHT22;6603;47.066;15.396;2022-10-17T05:53:13;8.30;99.90
13074;DHT22;6603;47.066;15.396;2022-10-17T05:55:39;8.40;99.90
13074;DHT22;6603;47.066;15.396;2022-10-17T05:58:06;8.30;99.90
13074;DHT22;6603;47.066;15.396;2022-10-17T06:00:32;8.50;99.90
13074;DHT22;6603;47.066;15.396;2022-10-17T06:02:57;8.70;99.90
13074;DHT22;6603;47.066;15.396;2022-10-17T06:05:23;8.80;99.90
13074;DHT22;6603;47.066;15.396;2022-10-17T06:07:49;8.70;99.90
13074;DHT22;6603;47.066;15.396;2022-10-17T06:10:17;8.60;99.90
13074;DHT22;6603;47.066;15.396;2022-10-17T06:12:44;8.70;99.90
13074;DHT22;6603;47.066;15.396;2022-10-17T06:15:11;9.00;99.90
13074;DHT22;6603;47.066;15.396;2022-10-17T06:17:37;9.10;99.90
13074;DHT22;6603;47.066;15.396;2022-10-17T06:20:03;9.20;99.90
13074;DHT22;6603;47.066;15.396;2022-10-17T06:22:29;9.20;99.90
13074;DHT22;6603;47.066;15.396;2022-10-17T06:24:55;9.30;99.90
13074;DHT22;6603;47.066;15.396;2022-10-17T06:27:21;9.30;99.90
13074;DHT22;6603;47.066;15.396;2022-10-17T06:29:47;9.40;99.90
13074;DHT22;6603;47.066;15.396;2022-10-17T06:32:13;9.60;99.90
13074;DHT22;6603;47.066;15.396;2022-10-17T06:34:39;9.60;99.90
13074;DHT22;6603;47.066;15.396;2022-10-17T06:37:05;9.80;99.90
13074;DHT22;6603;47.066;15.396;2022-10-17T06:39:31;10.00;99.90
13074;DHT22;6603;47.066;15.396;2022-10-17T06:42:02;10.10;99.90
13074;DHT22;6603;47.066;15.396;2022-10-17T06:44:28;10.30;99.90
13074;DHT22;6603;47.066;15.396;2022-10-17T06:46:57;10.30;99.90
13074;DHT22;6603;47.066;15.396;2022-10-17T06:49:23;10.40;99.90
13074;DHT22;6603;47.066;15.396;2022-10-17T06:51:49;10.50;99.90
13074;DHT22;6603;47.066;15.396;2022-10-17T06:54:15;10.60;99.90
13074;DHT22;6603;47.066;15.396;2022-10-17T06:56:41;10.70;99.90
13074;DHT22;6603;47.066;15.396;2022-10-17T06:59:08;10.70;99.90
13074;DHT22;6603;47.066;15.396;2022-10-17T07:01:34;10.70;99.90
13074;DHT22;6603;47.066;15.396;2022-10-17T07:04:00;10.70;99.90
13074;DHT22;6603;47.066;15.396;2022-10-17T07:06:26;10.80;99.90
13074;DHT22;6603;47.066;15.396;2022-10-17T07:08:52;10.90;99.90
13074;DHT22;6603;47.066;15.396;2022-10-17T07:11:21;10.90;99.90
13074;DHT22;6603;47.066;15.396;2022-10-17T07:13:47;11.00;99.90
13074;DHT22;6603;47.066;15.396;2022-10-17T07:16:14;11.10;99.90
13074;DHT22;6603;47.066;15.396;2022-10-17T07:18:41;11.20;99.90
13074;DHT22;6603;47.066;15.396;2022-10-17T07:21:08;11.30;99.90
13074;DHT22;6603;47.066;15.396;2022-10-17T07:23:35;11.40;99.90
13074;DHT22;6603;47.066;15.396;2022-10-17T07:26:05;11.50;99.90
13074;DHT22;6603;47.066;15.396;2022-10-17T07:28:33;11.60;99.90
13074;DHT22;6603;47.066;15.396;2022-10-17T07:31:06;11.70;99.90
13074;DHT22;6603;47.066;15.396;2022-10-17T07:33:32;11.80;99.90
13074;DHT22;6603;47.066;15.396;2022-10-17T07:35:59;11.90;99.90
13074;DHT22;6603;47.066;15.396;2022-10-17T07:38:26;12.00;99.90
13074;DHT22;6603;47.066;15.396;2022-10-17T07:40:57;12.00;99.90
13074;DHT22;6603;47.066;15.396;2022-10-17T07:43:24;12.10;99.90
13074;DHT22;6603;47.066;15.396;2022-10-17T07:45:50;12.20;99.90
13074;DHT22;6603;47.066;15.396;2022-10-17T07:48:17;12.30;99.90
13074;DHT22;6603;47.066;15.396;2022-10-17T07:50:43;12.40;99.90
13074;DHT22;6603;47.066;15.396;2022-10-17T07:53:09;12.50;99.90
13074;DHT22;6603;47.066;15.396;2022-10-17T07:55:39;12.60;99.90
13074;DHT22;6603;47.066;15.396;2022-10-17T07:58:07;12.80;99.90
13074;DHT22;6603;47.066;15.396;2022-10-17T08:00:35;12.90;99.90
13074;DHT22;6603;47.066;15.396;2022-10-17T08:03:00;13.00;99.90
13074;DHT22;6603;47.066;15.396;2022-10-17T08:05:26;13.00;99.90
13074;DHT22;6603;47.066;15.396;2022-10-17T08:07:53;13.10;99.90
13074;DHT22;6603;47.066;15.396;2022-10-17T08:10:20;13.20;99.90
13074;DHT22;6603;47.066;15.396;2022-10-17T08:12:46;13.30;99.90
13074;DHT22;6603;47.066;15.396;2022-10-17T08:15:12;13.40;99.90
13074;DHT22;6603;47.066;15.396;2022-10-17T08:17:38;13.50;99.90
13074;DHT22;6603;47.066;15.396;2022-10-17T08:20:04;13.60;99.90
13074;DHT22;6603;47.066;15.396;2022-10-17T08:22:31;13.70;99.90
13074;DHT22;6603;47.066;15.396;2022-10-17T08:24:58;13.80;99.90
13074;DHT22;6603;47.066;15.396;2022-10-17T08:27:24;13.90;99.90
13074;DHT22;6603;47.066;15.396;2022-10-17T08:29:52;14.00;99.90
13074;DHT22;6603;47.066;15.396;2022-10-17T08:32:24;14.10;99.90
13074;DHT22;6603;47.066;15.396;2022-10-17T08:34:51;14.20;99.90
13074;DHT22;6603;47.066;15.396;2022-10-17T08:37:18;14.30;99.90
13074;DHT22;6603;47.066;15.396;2022-10-17T08:39:43;14.50;99.90
13074;DHT22;6603;47.066;15.396;2022-10-17T08:45:31;14.70;99.90
13074;DHT22;6603;47.066;15.396;2022-10-17T08:48:03;14.80;99.90
13074;DHT22;6603;47.066;15.396;2022-10-17T08:55:47;15.00;99.90
13074;DHT22;6603;47.066;15.396;2022-10-17T09:00:51;15.20;99.90
13074;DHT22;6603;47.066;15.396;2022-10-17T09:03:39;15.30;99.90
13074;DHT22;6603;47.066;15.396;2022-10-17T09:06:23;15.40;99.90
13074;DHT22;6603;47.066;15.396;2022-10-17T09:17:42;15.90;99.90
13074;DHT22;6603;47.066;15.396;2022-10-17T09:19:58;15.90;99.90
13074;DHT22;6603;47.066;15.396;2022-10-17T09:22:29;16.00;99.90
13074;DHT22;6603;47.066;15.396;2022-10-17T09:25:05;16.10;99.90
13074;DHT22;6603;47.066;15.396;2022-10-17T09:27:50;16.20;99.90
13074;DHT22;6603;47.066;15.396;2022-10-17T09:33:11;16.40;99.90
13074;DHT22;6603;47.066;15.396;2022-10-17T09:35:38;16.50;93.10
13074;DHT22;6603;47.066;15.396;2022-10-17T09:38:18;16.50;99.90
13074;DHT22;6603;47.066;15.396;2022-10-17T09:40:54;16.60;67.70
13074;DHT22;6603;47.066;15.396;2022-10-17T09:43:21;16.70;94.30
13074;DHT22;6603;47.066;15.396;2022-10-17T09:46:06;16.90;52.10
13074;DHT22;6603;47.066;15.396;2022-10-17T09:48:41;16.90;59.80
13074;DHT22;6603;47.066;15.396;2022-10-17T09:51:11;17.00;48.10
13074;DHT22;6603;47.066;15.396;2022-10-17T09:53:39;17.10;61.70
13074;DHT22;6603;47.066;15.396;2022-10-17T09:56:17;17.20;4.70
13074;DHT22;6603;47.066;15.396;2022-10-17T09:58:49;17.20;16.40
13074;DHT22;6603;47.066;15.396;2022-10-17T10:01:21;17.20;1.00
13074;DHT22;6603;47.066;15.396;2022-10-17T10:04:06;17.30;22.30
13074;DHT22;6603;47.066;15.396;2022-10-17T10:06:33;17.40;13.60
13074;DHT22;6603;47.066;15.396;2022-10-17T10:08:59;17.50;31.80
13074;DHT22;6603;47.066;15.396;2022-10-17T10:17:04;17.80;1.00
13074;DHT22;6603;47.066;15.396;2022-10-17T10:19:36;17.90;1.00
13074;DHT22;6603;47.066;15.396;2022-10-17T10:22:16;17.90;1.00
13074;DHT22;6603;47.066;15.396;2022-10-17T10:24:42;18.00;1.00
13074;DHT22;6603;47.066;15.396;2022-10-17T10:27:16;18.00;1.00
13074;DHT22;6603;47.066;15.396;2022-10-17T10:29:49;18.10;1.00
13074;DHT22;6603;47.066;15.396;2022-10-17T10:32:23;18.00;1.00
13074;DHT22;6603;47.066;15.396;2022-10-17T10:37:40;18.00;1.00
13074;DHT22;6603;47.066;15.396;2022-10-17T10:42:51;18.50;1.00
13074;DHT22;6603;47.066;15.396;2022-10-17T10:45:53;18.40;1.00
13074;DHT22;6603;47.066;15.396;2022-10-17T10:48:19;18.50;1.00
13074;DHT22;6603;47.066;15.396;2022-10-17T10:58:52;19.00;1.00
13074;DHT22;6603;47.066;15.396;2022-10-17T11:06:31;19.30;99.90
13074;DHT22;6603;47.066;15.396;2022-10-17T11:12:01;19.60;1.00
13074;DHT22;6603;47.066;15.396;2022-10-17T11:17:08;19.60;99.90
13074;DHT22;6603;47.066;15.396;2022-10-17T11:22:20;19.90;99.90
13074;DHT22;6603;47.066;15.396;2022-10-17T11:24:57;19.90;1.00
13074;DHT22;6603;47.066;15.396;2022-10-17T11:27:27;20.10;1.00
13074;DHT22;6603;47.066;15.396;2022-10-17T11:29:54;20.40;1.00
13074;DHT22;6603;47.066;15.396;2022-10-17T11:32:33;20.30;98.70
13074;DHT22;6603;47.066;15.396;2022-10-17T11:35:14;20.50;1.00
13074;DHT22;6603;47.066;15.396;2022-10-17T11:37:54;20.50;1.00
13074;DHT22;6603;47.066;15.396;2022-10-17T11:40:28;20.60;1.00
13074;DHT22;6603;47.066;15.396;2022-10-17T11:43:25;20.50;1.00
13074;DHT22;6603;47.066;15.396;2022-10-17T11:45:57;20.80;1.00
13074;DHT22;6603;47.066;15.396;2022-10-17T11:48:40;20.70;99.90
13074;DHT22;6603;47.066;15.396;2022-10-17T11:51:12;20.70;1.00
13074;DHT22;6603;47.066;15.396;2022-10-17T11:54:18;21.00;1.00
13074;DHT22;6603;47.066;15.396;2022-10-17T11:57:05;21.10;99.90
13074;DHT22;6603;47.066;15.396;2022-10-17T12:10:32;21.10;1.00
13074;DHT22;6603;47.066;15.396;2022-10-17T12:21:58;21.30;99.90
13074;DHT22;6603;47.066;15.396;2022-10-17T12:24:54;21.40;99.90
13074;DHT22;6603;47.066;15.396;2022-10-17T12:30:23;21.60;1.00
13074;DHT22;6603;47.066;15.396;2022-10-17T12:33:02;21.70;1.00
13074;DHT22;6603;47.066;15.396;2022-10-17T12:35:30;21.60;99.90
13074;DHT22;6603;47.066;15.396;2022-10-17T12:45:50;21.50;1.00
13074;DHT22;6603;47.066;15.396;2022-10-17T12:51:14;21.60;38.40
13074;DHT22;6603;47.066;15.396;2022-10-17T12:56:18;21.80;1.00
13074;DHT22;6603;47.066;15.396;2022-10-17T12:58:47;21.90;1.00
13074;DHT22;6603;47.066;15.396;2022-10-17T13:01:26;21.70;99.90
13074;DHT22;6603;47.066;15.396;2022-10-17T13:03:53;21.70;1.00
13074;DHT22;6603;47.066;15.396;2022-10-17T13:06:27;22.00;56.10
13074;DHT22;6603;47.066;15.396;2022-10-17T13:08:58;21.90;1.00
13074;DHT22;6603;47.066;15.396;2022-10-17T13:11:27;22.00;99.90
13074;DHT22;6603;47.066;15.396;2022-10-17T13:13:57;22.10;99.90
13074;DHT22;6603;47.066;15.396;2022-10-17T13:18:58;22.00;1.00
13074;DHT22;6603;47.066;15.396;2022-10-17T13:21:25;22.10;1.00
13074;DHT22;6603;47.066;15.396;2022-10-17T13:23:51;22.10;1.00
13074;DHT22;6603;47.066;15.396;2022-10-17T13:26:26;22.10;1.00
13074;DHT22;6603;47.066;15.396;2022-10-17T13:29:06;22.20;99.90
13074;DHT22;6603;47.066;15.396;2022-10-17T13:31:37;22.30;99.90
13074;DHT22;6603;47.066;15.396;2022-10-17T13:34:13;22.00;1.00
13074;DHT22;6603;47.066;15.396;2022-10-17T13:36:40;22.10;99.90
13074;DHT22;6603;47.066;15.396;2022-10-17T13:39:09;22.10;1.00
13074;DHT22;6603;47.066;15.396;2022-10-17T13:41:39;22.10;99.90
13074;DHT22;6603;47.066;15.396;2022-10-17T13:44:13;22.00;99.90
13074;DHT22;6603;47.066;15.396;2022-10-17T13:46:40;22.00;1.00
13074;DHT22;6603;47.066;15.396;2022-10-17T13:51:46;22.20;99.90
13074;DHT22;6603;47.066;15.396;2022-10-17T13:54:37;22.10;1.00
13074;DHT22;6603;47.066;15.396;2022-10-17T13:57:15;22.10;99.90
13074;DHT22;6603;47.066;15.396;2022-10-17T13:59:43;22.00;99.90
13074;DHT22;6603;47.066;15.396;2022-10-17T14:02:19;21.90;99.90
13074;DHT22;6603;47.066;15.396;2022-10-17T14:04:46;21.90;1.00
13074;DHT22;6603;47.066;15.396;2022-10-17T14:07:25;21.90;99.90
13074;DHT22;6603;47.066;15.396;2022-10-17T14:09:52;21.90;99.90
13074;DHT22;6603;47.066;15.396;2022-10-17T14:12:19;21.80;99.90
13074;DHT22;6603;47.066;15.396;2022-10-17T14:14:52;21.90;1.00
13074;DHT22;6603;47.066;15.396;2022-10-17T14:17:23;21.80;1.00
13074;DHT22;6603;47.066;15.396;2022-10-17T14:20:02;21.60;99.90
13074;DHT22;6603;47.066;15.396;2022-10-17T14:22:32;21.50;1.00
13074;DHT22;6603;47.066;15.396;2022-10-17T14:24:58;21.40;99.90
13074;DHT22;6603;47.066;15.396;2022-10-17T14:27:27;21.40;1.00
13074;DHT22;6603;47.066;15.396;2022-10-17T14:29:55;21.30;22.00
13074;DHT22;6603;47.066;15.396;2022-10-17T14:32:31;21.30;1.00
13074;DHT22;6603;47.066;15.396;2022-10-17T14:34:59;21.30;99.90
13074;DHT22;6603;47.066;15.396;2022-10-17T14:37:40;21.10;99.90
13074;DHT22;6603;47.066;15.396;2022-10-17T14:40:22;20.90;1.00
13074;DHT22;6603;47.066;15.396;2022-10-17T14:42:54;20.80;5.70
13074;DHT22;6603;47.066;15.396;2022-10-17T14:45:32;20.90;1.00
13074;DHT22;6603;47.066;15.396;2022-10-17T14:48:16;20.80;99.90
13074;DHT22;6603;47.066;15.396;2022-10-17T14:51:09;20.60;99.90
13074;DHT22;6603;47.066;15.396;2022-10-17T14:53:36;20.50;1.00
13074;DHT22;6603;47.066;15.396;2022-10-17T14:56:19;20.50;1.00
13074;DHT22;6603;47.066;15.396;2022-10-17T14:58:49;20.40;1.00
13074;DHT22;6603;47.066;15.396;2022-10-17T15:01:17;20.30;99.90
13074;DHT22;6603;47.066;15.396;2022-10-17T15:03:43;20.10;1.00
13074;DHT22;6603;47.066;15.396;2022-10-17T15:06:22;20.00;1.00
13074;DHT22;6603;47.066;15.396;2022-10-17T15:08:48;19.80;26.40
13074;DHT22;6603;47.066;15.396;2022-10-17T15:11:13;19.80;99.90
13074;DHT22;6603;47.066;15.396;2022-10-17T15:13:39;19.70;99.90
13074;DHT22;6603;47.066;15.396;2022-10-17T15:16:20;19.60;1.00
13074;DHT22;6603;47.066;15.396;2022-10-17T15:18:46;19.40;1.00
13074;DHT22;6603;47.066;15.396;2022-10-17T15:21:14;19.30;1.00
13074;DHT22;6603;47.066;15.396;2022-10-17T15:23:40;19.20;1.00
13074;DHT22;6603;47.066;15.396;2022-10-17T15:26:19;19.00;1.00
13074;DHT22;6603;47.066;15.396;2022-10-17T15:28:46;18.80;1.00
13074;DHT22;6603;47.066;15.396;2022-10-17T15:31:14;18.80;1.00
13074;DHT22;6603;47.066;15.396;2022-10-17T15:33:41;18.80;1.00
13074;DHT22;6603;47.066;15.396;2022-10-17T15:36:30;18.60;1.00
13074;DHT22;6603;47.066;15.396;2022-10-17T15:38:59;18.50;1.00
13074;DHT22;6603;47.066;15.396;2022-10-17T15:41:28;18.40;1.00
13074;DHT22;6603;47.066;15.396;2022-10-17T15:43:54;18.30;3.50
13074;DHT22;6603;47.066;15.396;2022-10-17T15:46:22;18.00;22.80
13074;DHT22;6603;47.066;15.396;2022-10-17T15:48:51;17.90;39.80
13074;DHT22;6603;47.066;15.396;2022-10-17T15:51:17;17.90;46.50
13074;DHT22;6603;47.066;15.396;2022-10-17T15:53:44;17.60;74.80
13074;DHT22;6603;47.066;15.396;2022-10-17T15:56:32;17.40;99.00
13074;DHT22;6603;47.066;15.396;2022-10-17T15:59:13;17.40;97.60
13074;DHT22;6603;47.066;15.396;2022-10-17T16:01:42;17.10;99.90
13074;DHT22;6603;47.066;15.396;2022-10-17T16:04:10;17.00;99.90
13074;DHT22;6603;47.066;15.396;2022-10-17T16:06:39;16.90;99.90
13074;DHT22;6603;47.066;15.396;2022-10-17T16:09:04;16.80;99.90
13074;DHT22;6603;47.066;15.396;2022-10-17T16:11:36;16.70;99.90
13074;DHT22;6603;47.066;15.396;2022-10-17T16:14:09;16.50;99.90
13074;DHT22;6603;47.066;15.396;2022-10-17T16:16:35;16.30;99.90
13074;DHT22;6603;47.066;15.396;2022-10-17T16:21:46;16.20;99.90
13074;DHT22;6603;47.066;15.396;2022-10-17T16:24:14;16.00;99.90
13074;DHT22;6603;47.066;15.396;2022-10-17T16:26:41;15.90;99.90
13074;DHT22;6603;47.066;15.396;2022-10-17T16:29:12;15.90;99.90
13074;DHT22;6603;47.066;15.396;2022-10-17T16:31:43;15.60;99.90
13074;DHT22;6603;47.066;15.396;2022-10-17T16:34:14;15.60;99.90
13074;DHT22;6603;47.066;15.396;2022-10-17T16:36:44;15.40;99.90
13074;DHT22;6603;47.066;15.396;2022-10-17T16:39:11;15.40;99.90
13074;DHT22;6603;47.066;15.396;2022-10-17T16:41:46;15.50;99.90
13074;DHT22;6603;47.066;15.396;2022-10-17T16:44:20;15.30;99.90
13074;DHT22;6603;47.066;15.396;2022-10-17T16:46:47;15.20;99.90
13074;DHT22;6603;47.066;15.396;2022-10-17T16:49:14;15.00;99.90
13074;DHT22;6603;47.066;15.396;2022-10-17T16:51:43;15.10;99.90
13074;DHT22;6603;47.066;15.396;2022-10-17T16:54:09;15.00;99.90
13074;DHT22;6603;47.066;15.396;2022-10-17T16:56:35;14.80;99.90
13074;DHT22;6603;47.066;15.396;2022-10-17T16:59:01;14.80;99.90
13074;DHT22;6603;47.066;15.396;2022-10-17T17:01:28;14.70;99.90
13074;DHT22;6603;47.066;15.396;2022-10-17T17:03:54;14.60;99.90
13074;DHT22;6603;47.066;15.396;2022-10-17T17:06:26;14.50;99.90
13074;DHT22;6603;47.066;15.396;2022-10-17T17:08:53;14.50;99.90
13074;DHT22;6603;47.066;15.396;2022-10-17T17:11:21;14.50;99.90
13074;DHT22;6603;47.066;15.396;2022-10-17T17:13:47;14.40;99.90
13074;DHT22;6603;47.066;15.396;2022-10-17T17:16:16;14.50;99.90
13074;DHT22;6603;47.066;15.396;2022-10-17T17:18:43;14.50;99.90
13074;DHT22;6603;47.066;15.396;2022-10-17T17:21:11;14.50;99.90
13074;DHT22;6603;47.066;15.396;2022-10-17T17:23:39;14.40;99.90
13074;DHT22;6603;47.066;15.396;2022-10-17T17:26:17;14.40;99.90
13074;DHT22;6603;47.066;15.396;2022-10-17T17:28:45;14.20;99.90
13074;DHT22;6603;47.066;15.396;2022-10-17T17:31:20;14.20;99.90
13074;DHT22;6603;47.066;15.396;2022-10-17T17:33:50;14.40;99.90
13074;DHT22;6603;47.066;15.396;2022-10-17T17:36:20;14.20;99.90
13074;DHT22;6603;47.066;15.396;2022-10-17T17:38:47;14.20;99.90
13074;DHT22;6603;47.066;15.396;2022-10-17T17:41:16;14.20;99.90
13074;DHT22;6603;47.066;15.396;2022-10-17T17:43:43;14.20;99.90
13074;DHT22;6603;47.066;15.396;2022-10-17T17:46:10;14.00;99.90
13074;DHT22;6603;47.066;15.396;2022-10-17T17:48:37;14.00;99.90
13074;DHT22;6603;47.066;15.396;2022-10-17T17:51:10;14.00;99.90
13074;DHT22;6603;47.066;15.396;2022-10-17T17:53:37;14.10;99.90
13074;DHT22;6603;47.066;15.396;2022-10-17T17:56:11;14.00;99.90
13074;DHT22;6603;47.066;15.396;2022-10-17T17:58:47;13.90;99.90
13074;DHT22;6603;47.066;15.396;2022-10-17T18:01:20;13.80;99.90
13074;DHT22;6603;47.066;15.396;2022-10-17T18:03:49;13.70;99.90
13074;DHT22;6603;47.066;15.396;2022-10-17T18:06:17;13.70;99.90
13074;DHT22;6603;47.066;15.396;2022-10-17T18:08:45;13.60;99.90
13074;DHT22;6603;47.066;15.396;2022-10-17T18:11:14;13.60;99.90